sensor_id;sensor_type;location;lat;lon;timestamp;P1;durP1;ratioP1;P2;durP2;ratioP2
31348;SDS011;17976;48.480;11.946;2023-05-16T08:35:53;17.38;;;13.80;;
31348;SDS011;17976;48.480;11.946;2023-05-16T08:38:19;18.83;;;14.15;;
31348;SDS011;17976;48.480;11.946;2023-05-16T08:40:45;16.85;;;13.35;;
31348;SDS011;17976;48.480;11.946;2023-05-16T08:43:11;17.27;;;13.80;;
31348;SDS011;17976;48.480;11.946;2023-05-16T08:45:39;19.60;;;14.60;;
31348;SDS011;17976;48.480;11.946;2023-05-16T08:48:05;17.80;;;12.65;;
31348;SDS011;17976;48.480;11.946;2023-05-16T08:50:32;22.45;;;12.27;;
31348;SDS011;17976;48.480;11.946;2023-05-16T08:52:57;17.95;;;12.82;;
31348;SDS011;17976;48.480;11.946;2023-05-16T08:55:26;18.35;;;13.05;;
31348;SDS011;17976;48.480;11.946;2023-05-16T08:57:52;15.02;;;12.65;;
31348;SDS011;17976;48.480;11.946;2023-05-16T09:00:19;17.35;;;12.75;;
31348;SDS011;17976;48.480;11.946;2023-05-16T09:02:45;17.92;;;12.35;;
31348;SDS011;17976;48.480;11.946;2023-05-16T09:05:12;15.85;;;12.13;;
31348;SDS011;17976;48.480;11.946;2023-05-16T09:07:39;14.82;;;12.07;;
31348;SDS011;17976;48.480;11.946;2023-05-16T09:10:05;13.93;;;11.93;;
31348;SDS011;17976;48.480;11.946;2023-05-16T09:12:32;14.80;;;13.20;;
31348;SDS011;17976;48.480;11.946;2023-05-16T09:15:00;15.60;;;12.77;;
31348;SDS011;17976;48.480;11.946;2023-05-16T09:17:26;15.95;;;12.88;;
31348;SDS011;17976;48.480;11.946;2023-05-16T09:19:59;17.38;;;13.70;;
31348;SDS011;17976;48.480;11.946;2023-05-16T09:22:25;18.17;;;12.90;;
31348;SDS011;17976;48.480;11.946;2023-05-16T09:24:51;14.65;;;11.63;;
31348;SDS011;17976;48.480;11.946;2023-05-16T09:27:17;14.77;;;12.10;;
31348;SDS011;17976;48.480;11.946;2023-05-16T09:29:43;15.80;;;11.98;;
31348;SDS011;17976;48.480;11.946;2023-05-16T09:32:11;17.83;;;12.00;;
31348;SDS011;17976;48.480;11.946;2023-05-16T09:34:40;13.05;;;11.65;;
31348;SDS011;17976;48.480;11.946;2023-05-16T09:37:08;16.00;;;12.15;;
31348;SDS011;17976;48.480;11.946;2023-05-16T09:39:35;19.48;;;12.40;;
31348;SDS011;17976;48.480;11.946;2023-05-16T09:42:01;15.38;;;12.25;;
31348;SDS011;17976;48.480;11.946;2023-05-16T09:44:27;14.88;;;12.27;;
31348;SDS011;17976;48.480;11.946;2023-05-16T09:46:53;15.20;;;12.13;;
31348;SDS011;17976;48.480;11.946;2023-05-16T09:49:19;15.80;;;13.07;;
31348;SDS011;17976;48.480;11.946;2023-05-16T09:51:46;15.45;;;12.05;;
31348;SDS011;17976;48.480;11.946;2023-05-16T09:54:12;19.60;;;12.63;;
31348;SDS011;17976;48.480;11.946;2023-05-16T09:56:48;15.80;;;12.07;;
31348;SDS011;17976;48.480;11.946;2023-05-16T09:59:14;20.10;;;11.93;;
31348;SDS011;17976;48.480;11.946;2023-05-16T10:01:40;17.80;;;12.90;;
31348;SDS011;17976;48.480;11.946;2023-05-16T10:04:07;13.45;;;11.48;;
31348;SDS011;17976;48.480;11.946;2023-05-16T10:06:37;12.32;;;10.98;;
31348;SDS011;17976;48.480;11.946;2023-05-16T10:09:04;18.52;;;11.02;;
31348;SDS011;17976;48.480;11.946;2023-05-16T10:11:30;12.85;;;10.45;;
31348;SDS011;17976;48.480;11.946;2023-05-16T10:13:56;13.77;;;11.05;;
31348;SDS011;17976;48.480;11.946;2023-05-16T10:16:23;11.98;;;10.48;;
31348;SDS011;17976;48.480;11.946;2023-05-16T10:18:50;13.57;;;11.15;;
31348;SDS011;17976;48.480;11.946;2023-05-16T10:21:16;13.75;;;10.55;;
31348;SDS011;17976;48.480;11.946;2023-05-16T10:23:46;12.77;;;10.02;;
31348;SDS011;17976;48.480;11.946;2023-05-16T10:26:13;13.15;;;10.60;;
31348;SDS011;17976;48.480;11.946;2023-05-16T10:28:40;11.40;;;8.98;;
31348;SDS011;17976;48.480;11.946;2023-05-16T10:31:07;15.18;;;10.18;;
31348;SDS011;17976;48.480;11.946;2023-05-16T10:33:33;10.15;;;8.38;;
31348;SDS011;17976;48.480;11.946;2023-05-16T10:36:00;10.15;;;8.15;;
31348;SDS011;17976;48.480;11.946;2023-05-16T10:38:27;10.95;;;8.82;;
31348;SDS011;17976;48.480;11.946;2023-05-16T10:40:54;11.40;;;8.07;;
31348;SDS011;17976;48.480;11.946;2023-05-16T10:43:27;10.63;;;9.00;;
31348;SDS011;17976;48.480;11.946;2023-05-16T10:46:04;10.95;;;8.45;;
31348;SDS011;17976;48.480;11.946;2023-05-16T10:48:35;10.77;;;8.60;;
31348;SDS011;17976;48.480;11.946;2023-05-16T10:51:02;20.58;;;14.18;;
31348;SDS011;17976;48.480;11.946;2023-05-16T10:53:29;17.38;;;11.82;;
31348;SDS011;17976;48.480;11.946;2023-05-16T11:01:22;7.13;;;6.18;;
31348;SDS011;17976;48.480;11.946;2023-05-16T11:14:01;9.05;;;6.20;;
31348;SDS011;17976;48.480;11.946;2023-05-16T11:16:30;7.47;;;6.25;;
31348;SDS011;17976;48.480;11.946;2023-05-16T11:19:07;9.40;;;6.13;;
31348;SDS011;17976;48.480;11.946;2023-05-16T11:24:28;10.27;;;7.80;;
31348;SDS011;17976;48.480;11.946;2023-05-16T11:26:54;16.73;;;9.18;;
31348;SDS011;17976;48.480;11.946;2023-05-16T11:29:20;15.68;;;10.23;;
31348;SDS011;17976;48.480;11.946;2023-05-16T11:31:46;12.00;;;9.10;;
31348;SDS011;17976;48.480;11.946;2023-05-16T11:34:12;15.68;;;8.90;;
31348;SDS011;17976;48.480;11.946;2023-05-16T11:36:38;13.13;;;9.38;;
31348;SDS011;17976;48.480;11.946;2023-05-16T11:39:07;12.32;;;8.88;;
31348;SDS011;17976;48.480;11.946;2023-05-16T11:41:34;12.82;;;9.38;;
31348;SDS011;17976;48.480;11.946;2023-05-16T11:44:00;14.00;;;9.70;;
31348;SDS011;17976;48.480;11.946;2023-05-16T11:46:26;11.35;;;9.40;;
31348;SDS011;17976;48.480;11.946;2023-05-16T11:48:52;11.30;;;9.60;;
31348;SDS011;17976;48.480;11.946;2023-05-16T11:51:18;11.88;;;9.48;;
31348;SDS011;17976;48.480;11.946;2023-05-16T11:53:46;10.68;;;8.18;;
31348;SDS011;17976;48.480;11.946;2023-05-16T11:56:13;19.02;;;12.52;;
31348;SDS011;17976;48.480;11.946;2023-05-16T11:58:40;11.05;;;9.48;;
31348;SDS011;17976;48.480;11.946;2023-05-16T12:01:06;11.52;;;8.25;;
31348;SDS011;17976;48.480;11.946;2023-05-16T12:03:33;12.88;;;9.02;;
31348;SDS011;17976;48.480;11.946;2023-05-16T12:06:00;11.05;;;8.13;;
31348;SDS011;17976;48.480;11.946;2023-05-16T12:08:26;9.63;;;8.00;;
31348;SDS011;17976;48.480;11.946;2023-05-16T12:10:52;12.60;;;8.82;;
31348;SDS011;17976;48.480;11.946;2023-05-16T12:13:19;11.07;;;8.65;;
31348;SDS011;17976;48.480;11.946;2023-05-16T12:15:46;10.60;;;8.60;;
31348;SDS011;17976;48.480;11.946;2023-05-16T12:18:12;9.80;;;7.60;;
31348;SDS011;17976;48.480;11.946;2023-05-16T12:20:38;10.63;;;8.10;;
31348;SDS011;17976;48.480;11.946;2023-05-16T12:23:04;9.40;;;7.97;;
31348;SDS011;17976;48.480;11.946;2023-05-16T12:25:31;12.43;;;8.93;;
31348;SDS011;17976;48.480;11.946;2023-05-16T12:27:58;11.45;;;8.57;;
31348;SDS011;17976;48.480;11.946;2023-05-16T12:30:25;6.45;;;5.63;;
31348;SDS011;17976;48.480;11.946;2023-05-16T12:33:01;5.60;;;4.38;;
31348;SDS011;17976;48.480;11.946;2023-05-16T12:35:28;7.82;;;5.82;;
31348;SDS011;17976;48.480;11.946;2023-05-16T12:37:55;6.55;;;5.28;;
31348;SDS011;17976;48.480;11.946;2023-05-16T12:40:21;5.28;;;3.92;;
31348;SDS011;17976;48.480;11.946;2023-05-16T12:42:52;4.75;;;3.33;;
31348;SDS011;17976;48.480;11.946;2023-05-16T12:45:21;3.80;;;3.33;;
31348;SDS011;17976;48.480;11.946;2023-05-16T12:47:47;9.50;;;3.53;;
31348;SDS011;17976;48.480;11.946;2023-05-16T12:50:14;4.30;;;3.63;;
31348;SDS011;17976;48.480;11.946;2023-05-16T12:52:51;6.32;;;4.30;;
31348;SDS011;17976;48.480;11.946;2023-05-16T12:55:18;8.55;;;4.30;;
31348;SDS011;17976;48.480;11.946;2023-05-16T12:57:44;8.95;;;4.53;;
31348;SDS011;17976;48.480;11.946;2023-05-16T13:00:12;6.30;;;4.70;;
31348;SDS011;17976;48.480;11.946;2023-05-16T13:02:38;4.72;;;4.22;;
31348;SDS011;17976;48.480;11.946;2023-05-16T13:05:04;5.80;;;4.53;;
31348;SDS011;17976;48.480;11.946;2023-05-16T13:07:31;7.72;;;5.00;;
31348;SDS011;17976;48.480;11.946;2023-05-16T13:09:57;5.78;;;4.13;;
31348;SDS011;17976;48.480;11.946;2023-05-16T13:12:23;6.22;;;4.40;;
31348;SDS011;17976;48.480;11.946;2023-05-16T13:14:51;5.68;;;5.00;;
31348;SDS011;17976;48.480;11.946;2023-05-16T13:17:17;7.28;;;5.22;;
31348;SDS011;17976;48.480;11.946;2023-05-16T13:19:43;7.43;;;4.93;;
31348;SDS011;17976;48.480;11.946;2023-05-16T13:22:09;5.45;;;4.70;;
31348;SDS011;17976;48.480;11.946;2023-05-16T13:24:35;6.32;;;4.50;;
31348;SDS011;17976;48.480;11.946;2023-05-16T13:27:01;7.90;;;5.00;;
31348;SDS011;17976;48.480;11.946;2023-05-16T13:29:27;11.20;;;4.80;;
31348;SDS011;17976;48.480;11.946;2023-05-16T13:31:53;9.10;;;5.13;;
31348;SDS011;17976;48.480;11.946;2023-05-16T13:34:19;6.35;;;4.65;;
31348;SDS011;17976;48.480;11.946;2023-05-16T13:36:45;7.03;;;5.18;;
31348;SDS011;17976;48.480;11.946;2023-05-16T13:39:13;7.13;;;5.28;;
31348;SDS011;17976;48.480;11.946;2023-05-16T13:41:38;5.82;;;5.22;;
31348;SDS011;17976;48.480;11.946;2023-05-16T13:44:06;7.97;;;5.55;;
31348;SDS011;17976;48.480;11.946;2023-05-16T13:46:32;5.85;;;5.25;;
31348;SDS011;17976;48.480;11.946;2023-05-16T13:48:58;7.93;;;5.13;;
31348;SDS011;17976;48.480;11.946;2023-05-16T13:51:24;7.60;;;5.28;;
31348;SDS011;17976;48.480;11.946;2023-05-16T13:53:50;7.15;;;5.28;;
31348;SDS011;17976;48.480;11.946;2023-05-16T13:56:16;7.03;;;5.35;;
31348;SDS011;17976;48.480;11.946;2023-05-16T13:58:42;5.28;;;4.78;;
31348;SDS011;17976;48.480;11.946;2023-05-16T14:01:08;6.50;;;5.07;;
31348;SDS011;17976;48.480;11.946;2023-05-16T14:03:34;6.28;;;5.40;;
31348;SDS011;17976;48.480;11.946;2023-05-16T14:06:03;8.18;;;6.18;;
31348;SDS011;17976;48.480;11.946;2023-05-16T14:08:29;6.88;;;5.28;;
31348;SDS011;17976;48.480;11.946;2023-05-16T14:10:55;8.65;;;6.40;;
31348;SDS011;17976;48.480;11.946;2023-05-16T14:13:21;6.68;;;5.72;;
31348;SDS011;17976;48.480;11.946;2023-05-16T14:15:47;6.40;;;5.68;;
31348;SDS011;17976;48.480;11.946;2023-05-16T14:18:13;10.60;;;6.45;;
31348;SDS011;17976;48.480;11.946;2023-05-16T14:20:39;9.65;;;6.18;;
31348;SDS011;17976;48.480;11.946;2023-05-16T14:23:05;8.82;;;6.57;;
31348;SDS011;17976;48.480;11.946;2023-05-16T14:25:31;10.02;;;6.88;;
31348;SDS011;17976;48.480;11.946;2023-05-16T14:27:57;8.85;;;6.80;;
31348;SDS011;17976;48.480;11.946;2023-05-16T14:30:23;9.20;;;6.82;;
31348;SDS011;17976;48.480;11.946;2023-05-16T14:32:49;7.45;;;6.57;;
31348;SDS011;17976;48.480;11.946;2023-05-16T14:35:15;9.52;;;7.40;;
31348;SDS011;17976;48.480;11.946;2023-05-16T14:37:41;9.25;;;6.50;;
31348;SDS011;17976;48.480;11.946;2023-05-16T14:40:07;8.38;;;6.68;;
31348;SDS011;17976;48.480;11.946;2023-05-16T14:42:34;8.75;;;7.32;;
31348;SDS011;17976;48.480;11.946;2023-05-16T14:45:00;9.13;;;6.65;;
31348;SDS011;17976;48.480;11.946;2023-05-16T14:47:26;9.55;;;6.88;;
31348;SDS011;17976;48.480;11.946;2023-05-16T14:49:53;8.98;;;6.72;;
31348;SDS011;17976;48.480;11.946;2023-05-16T14:52:20;11.65;;;7.85;;
31348;SDS011;17976;48.480;11.946;2023-05-16T14:54:46;9.38;;;7.10;;
31348;SDS011;17976;48.480;11.946;2023-05-16T14:57:12;10.65;;;6.72;;
31348;SDS011;17976;48.480;11.946;2023-05-16T14:59:38;9.57;;;7.57;;
31348;SDS011;17976;48.480;11.946;2023-05-16T15:02:04;8.65;;;7.32;;
31348;SDS011;17976;48.480;11.946;2023-05-16T15:04:30;13.13;;;6.53;;
31348;SDS011;17976;48.480;11.946;2023-05-16T15:06:56;10.45;;;6.68;;
31348;SDS011;17976;48.480;11.946;2023-05-16T15:09:22;9.07;;;6.78;;
31348;SDS011;17976;48.480;11.946;2023-05-16T15:11:48;8.93;;;6.97;;
31348;SDS011;17976;48.480;11.946;2023-05-16T15:14:14;10.57;;;7.00;;
31348;SDS011;17976;48.480;11.946;2023-05-16T15:16:41;8.90;;;7.53;;
31348;SDS011;17976;48.480;11.946;2023-05-16T15:19:07;11.98;;;7.75;;
31348;SDS011;17976;48.480;11.946;2023-05-16T15:21:33;9.48;;;7.57;;
31348;SDS011;17976;48.480;11.946;2023-05-16T15:23:59;10.85;;;7.93;;
31348;SDS011;17976;48.480;11.946;2023-05-16T15:26:25;10.40;;;8.82;;
31348;SDS011;17976;48.480;11.946;2023-05-16T15:28:51;15.65;;;9.43;;
31348;SDS011;17976;48.480;11.946;2023-05-16T15:31:19;11.18;;;8.45;;
31348;SDS011;17976;48.480;11.946;2023-05-16T15:33:45;12.70;;;9.27;;
31348;SDS011;17976;48.480;11.946;2023-05-16T15:36:12;11.77;;;9.52;;
31348;SDS011;17976;48.480;11.946;2023-05-16T15:38:38;13.95;;;9.43;;
31348;SDS011;17976;48.480;11.946;2023-05-16T15:41:08;13.65;;;9.07;;
31348;SDS011;17976;48.480;11.946;2023-05-16T15:43:34;13.68;;;9.85;;
31348;SDS011;17976;48.480;11.946;2023-05-16T15:46:00;11.13;;;9.65;;
31348;SDS011;17976;48.480;11.946;2023-05-16T15:48:26;13.75;;;9.23;;
31348;SDS011;17976;48.480;11.946;2023-05-16T15:50:52;12.68;;;9.80;;
31348;SDS011;17976;48.480;11.946;2023-05-16T15:53:18;12.07;;;9.77;;
31348;SDS011;17976;48.480;11.946;2023-05-16T15:55:44;12.68;;;10.18;;
31348;SDS011;17976;48.480;11.946;2023-05-16T15:58:11;16.25;;;10.52;;
31348;SDS011;17976;48.480;11.946;2023-05-16T16:00:37;13.10;;;10.52;;
31348;SDS011;17976;48.480;11.946;2023-05-16T16:03:05;12.73;;;10.23;;
31348;SDS011;17976;48.480;11.946;2023-05-16T16:05:31;11.65;;;10.13;;
31348;SDS011;17976;48.480;11.946;2023-05-16T16:07:57;12.60;;;9.75;;
31348;SDS011;17976;48.480;11.946;2023-05-16T16:10:23;12.20;;;9.90;;
31348;SDS011;17976;48.480;11.946;2023-05-16T16:13:02;14.25;;;10.07;;
31348;SDS011;17976;48.480;11.946;2023-05-16T16:15:29;12.57;;;10.32;;
31348;SDS011;17976;48.480;11.946;2023-05-16T16:17:56;14.60;;;11.25;;
31348;SDS011;17976;48.480;11.946;2023-05-16T16:20:22;13.80;;;10.60;;
31348;SDS011;17976;48.480;11.946;2023-05-16T16:22:48;12.38;;;10.55;;
31348;SDS011;17976;48.480;11.946;2023-05-16T16:25:14;14.15;;;9.60;;
31348;SDS011;17976;48.480;11.946;2023-05-16T16:27:40;13.32;;;10.38;;
31348;SDS011;17976;48.480;11.946;2023-05-16T16:30:09;13.20;;;9.25;;
31348;SDS011;17976;48.480;11.946;2023-05-16T16:32:36;13.07;;;9.98;;
31348;SDS011;17976;48.480;11.946;2023-05-16T16:35:02;11.02;;;9.85;;
31348;SDS011;17976;48.480;11.946;2023-05-16T16:37:32;12.77;;;10.57;;
31348;SDS011;17976;48.480;11.946;2023-05-16T16:39:58;12.68;;;10.00;;
31348;SDS011;17976;48.480;11.946;2023-05-16T16:42:24;12.63;;;9.95;;
31348;SDS011;17976;48.480;11.946;2023-05-16T16:44:53;13.73;;;9.88;;
31348;SDS011;17976;48.480;11.946;2023-05-16T16:47:20;13.50;;;10.00;;
31348;SDS011;17976;48.480;11.946;2023-05-16T16:49:46;10.02;;;7.75;;
31348;SDS011;17976;48.480;11.946;2023-05-16T16:52:12;12.40;;;9.15;;
31348;SDS011;17976;48.480;11.946;2023-05-16T16:54:38;11.07;;;8.73;;
31348;SDS011;17976;48.480;11.946;2023-05-16T16:57:04;13.23;;;9.45;;
31348;SDS011;17976;48.480;11.946;2023-05-16T16:59:30;11.13;;;8.55;;
31348;SDS011;17976;48.480;11.946;2023-05-16T17:01:56;10.32;;;8.65;;
31348;SDS011;17976;48.480;11.946;2023-05-16T17:04:22;11.48;;;9.35;;
31348;SDS011;17976;48.480;11.946;2023-05-16T17:06:48;14.07;;;8.68;;
31348;SDS011;17976;48.480;11.946;2023-05-16T17:09:15;10.02;;;8.07;;
31348;SDS011;17976;48.480;11.946;2023-05-16T17:11:42;11.05;;;8.77;;
31348;SDS011;17976;48.480;11.946;2023-05-16T17:14:10;11.07;;;8.75;;
31348;SDS011;17976;48.480;11.946;2023-05-16T17:16:37;9.95;;;8.25;;
31348;SDS011;17976;48.480;11.946;2023-05-16T17:19:04;12.18;;;9.23;;
31348;SDS011;17976;48.480;11.946;2023-05-16T17:21:31;11.95;;;8.90;;
31348;SDS011;17976;48.480;11.946;2023-05-16T17:23:59;18.73;;;13.85;;
31348;SDS011;17976;48.480;11.946;2023-05-16T17:26:25;19.50;;;12.85;;
31348;SDS011;17976;48.480;11.946;2023-05-16T17:28:53;31.63;;;22.63;;
31348;SDS011;17976;48.480;11.946;2023-05-16T17:31:20;13.13;;;10.45;;
31348;SDS011;17976;48.480;11.946;2023-05-16T17:33:46;14.43;;;9.98;;
31348;SDS011;17976;48.480;11.946;2023-05-16T17:36:12;11.88;;;10.02;;
31348;SDS011;17976;48.480;11.946;2023-05-16T17:38:38;11.57;;;9.55;;
31348;SDS011;17976;48.480;11.946;2023-05-16T17:41:04;12.35;;;10.10;;
31348;SDS011;17976;48.480;11.946;2023-05-16T17:43:30;13.25;;;10.40;;
31348;SDS011;17976;48.480;11.946;2023-05-16T17:45:56;12.15;;;9.30;;
31348;SDS011;17976;48.480;11.946;2023-05-16T17:48:22;14.65;;;9.65;;
31348;SDS011;17976;48.480;11.946;2023-05-16T17:50:48;13.27;;;9.93;;
31348;SDS011;17976;48.480;11.946;2023-05-16T17:53:14;13.65;;;8.77;;
31348;SDS011;17976;48.480;11.946;2023-05-16T17:55:40;12.35;;;9.48;;
31348;SDS011;17976;48.480;11.946;2023-05-16T17:58:06;15.52;;;9.48;;
31348;SDS011;17976;48.480;11.946;2023-05-16T18:00:33;15.15;;;8.98;;
31348;SDS011;17976;48.480;11.946;2023-05-16T18:02:59;12.60;;;9.32;;
31348;SDS011;17976;48.480;11.946;2023-05-16T18:05:25;12.82;;;8.85;;
31348;SDS011;17976;48.480;11.946;2023-05-16T18:07:51;12.07;;;8.68;;
31348;SDS011;17976;48.480;11.946;2023-05-16T18:10:17;11.05;;;8.18;;
31348;SDS011;17976;48.480;11.946;2023-05-16T18:12:43;14.77;;;10.43;;
31348;SDS011;17976;48.480;11.946;2023-05-16T18:15:10;10.85;;;8.57;;
31348;SDS011;17976;48.480;11.946;2023-05-16T18:17:36;12.75;;;8.77;;
31348;SDS011;17976;48.480;11.946;2023-05-16T18:20:03;9.93;;;8.15;;
31348;SDS011;17976;48.480;11.946;2023-05-16T18:22:39;11.43;;;8.27;;
31348;SDS011;17976;48.480;11.946;2023-05-16T18:25:06;12.52;;;8.32;;
31348;SDS011;17976;48.480;11.946;2023-05-16T18:27:33;12.98;;;8.88;;
31348;SDS011;17976;48.480;11.946;2023-05-16T18:29:59;10.00;;;7.63;;
31348;SDS011;17976;48.480;11.946;2023-05-16T18:32:25;14.80;;;8.48;;
31348;SDS011;17976;48.480;11.946;2023-05-16T18:34:51;10.40;;;7.63;;
31348;SDS011;17976;48.480;11.946;2023-05-16T18:37:17;12.18;;;7.60;;
31348;SDS011;17976;48.480;11.946;2023-05-16T18:39:43;17.42;;;7.70;;
31348;SDS011;17976;48.480;11.946;2023-05-16T18:42:10;10.77;;;7.90;;
31348;SDS011;17976;48.480;11.946;2023-05-16T18:44:36;11.48;;;7.70;;
31348;SDS011;17976;48.480;11.946;2023-05-16T18:47:02;12.68;;;7.55;;
31348;SDS011;17976;48.480;11.946;2023-05-16T18:49:27;10.07;;;7.88;;
31348;SDS011;17976;48.480;11.946;2023-05-16T18:51:54;10.27;;;7.93;;
31348;SDS011;17976;48.480;11.946;2023-05-16T18:54:20;16.58;;;8.00;;
31348;SDS011;17976;48.480;11.946;2023-05-16T18:56:46;15.48;;;8.98;;
31348;SDS011;17976;48.480;11.946;2023-05-16T18:59:12;13.13;;;8.10;;
31348;SDS011;17976;48.480;11.946;2023-05-16T19:01:38;10.60;;;7.70;;
31348;SDS011;17976;48.480;11.946;2023-05-16T19:04:04;11.23;;;8.32;;
31348;SDS011;17976;48.480;11.946;2023-05-16T19:06:29;11.63;;;8.68;;
31348;SDS011;17976;48.480;11.946;2023-05-16T19:08:55;13.45;;;7.13;;
31348;SDS011;17976;48.480;11.946;2023-05-16T19:11:21;12.70;;;7.90;;
31348;SDS011;17976;48.480;11.946;2023-05-16T19:13:47;11.98;;;7.50;;
31348;SDS011;17976;48.480;11.946;2023-05-16T19:16:13;10.63;;;6.90;;
31348;SDS011;17976;48.480;11.946;2023-05-16T19:18:39;8.10;;;6.60;;
31348;SDS011;17976;48.480;11.946;2023-05-16T19:21:05;8.73;;;6.68;;
31348;SDS011;17976;48.480;11.946;2023-05-16T19:23:32;8.15;;;5.78;;
31348;SDS011;17976;48.480;11.946;2023-05-16T19:25:58;10.05;;;6.63;;
31348;SDS011;17976;48.480;11.946;2023-05-16T19:28:24;8.45;;;5.43;;
31348;SDS011;17976;48.480;11.946;2023-05-16T19:30:50;8.70;;;6.00;;
31348;SDS011;17976;48.480;11.946;2023-05-16T19:33:16;9.18;;;6.72;;
31348;SDS011;17976;48.480;11.946;2023-05-16T19:35:42;8.52;;;5.65;;
31348;SDS011;17976;48.480;11.946;2023-05-16T19:38:09;9.98;;;6.13;;
31348;SDS011;17976;48.480;11.946;2023-05-16T19:40:35;9.60;;;6.20;;
31348;SDS011;17976;48.480;11.946;2023-05-16T19:43:01;9.02;;;5.90;;
31348;SDS011;17976;48.480;11.946;2023-05-16T19:45:27;7.65;;;5.25;;
31348;SDS011;17976;48.480;11.946;2023-05-16T19:47:53;8.05;;;5.65;;
31348;SDS011;17976;48.480;11.946;2023-05-16T19:50:19;10.02;;;5.32;;
31348;SDS011;17976;48.480;11.946;2023-05-16T19:52:46;9.00;;;5.53;;
31348;SDS011;17976;48.480;11.946;2023-05-16T19:55:12;7.20;;;5.40;;
31348;SDS011;17976;48.480;11.946;2023-05-16T19:57:37;11.27;;;5.50;;
31348;SDS011;17976;48.480;11.946;2023-05-16T20:41:36;8.07;;;3.90;;
31348;SDS011;17976;48.480;11.946;2023-05-16T20:44:02;4.78;;;3.78;;
31348;SDS011;17976;48.480;11.946;2023-05-16T20:46:28;8.40;;;3.95;;
31348;SDS011;17976;48.480;11.946;2023-05-16T20:48:54;6.63;;;3.35;;
31348;SDS011;17976;48.480;11.946;2023-05-16T20:51:20;6.95;;;3.45;;
31348;SDS011;17976;48.480;11.946;2023-05-16T20:53:46;4.32;;;2.92;;
31348;SDS011;17976;48.480;11.946;2023-05-16T20:56:12;5.93;;;3.35;;
31348;SDS011;17976;48.480;11.946;2023-05-16T20:58:38;3.92;;;2.88;;
31348;SDS011;17976;48.480;11.946;2023-05-16T21:01:08;3.70;;;2.95;;
31348;SDS011;17976;48.480;11.946;2023-05-16T21:03:35;5.55;;;3.58;;
31348;SDS011;17976;48.480;11.946;2023-05-16T21:06:00;4.65;;;2.53;;
31348;SDS011;17976;48.480;11.946;2023-05-16T21:08:27;3.80;;;2.63;;
31348;SDS011;17976;48.480;11.946;2023-05-16T21:10:53;3.75;;;2.40;;
31348;SDS011;17976;48.480;11.946;2023-05-16T21:13:19;7.53;;;4.20;;
31348;SDS011;17976;48.480;11.946;2023-05-16T21:15:45;6.68;;;2.70;;
31348;SDS011;17976;48.480;11.946;2023-05-16T21:18:11;5.85;;;2.33;;
31348;SDS011;17976;48.480;11.946;2023-05-16T21:20:36;4.30;;;2.38;;
31348;SDS011;17976;48.480;11.946;2023-05-16T21:23:02;9.10;;;2.70;;
31348;SDS011;17976;48.480;11.946;2023-05-16T21:25:28;4.57;;;2.53;;
31348;SDS011;17976;48.480;11.946;2023-05-16T21:27:54;4.60;;;2.35;;
31348;SDS011;17976;48.480;11.946;2023-05-16T21:30:20;3.90;;;2.35;;
31348;SDS011;17976;48.480;11.946;2023-05-16T21:32:46;5.82;;;2.28;;
31348;SDS011;17976;48.480;11.946;2023-05-16T21:35:12;7.10;;;2.20;;
31348;SDS011;17976;48.480;11.946;2023-05-16T21:37:38;4.22;;;2.15;;
31348;SDS011;17976;48.480;11.946;2023-05-16T21:40:04;4.22;;;2.10;;
31348;SDS011;17976;48.480;11.946;2023-05-16T21:42:33;4.80;;;2.20;;
31348;SDS011;17976;48.480;11.946;2023-05-16T21:44:59;6.07;;;2.22;;
31348;SDS011;17976;48.480;11.946;2023-05-16T21:47:24;4.00;;;1.95;;
31348;SDS011;17976;48.480;11.946;2023-05-16T21:49:50;7.82;;;2.50;;
31348;SDS011;17976;48.480;11.946;2023-05-16T21:52:16;6.80;;;2.30;;
31348;SDS011;17976;48.480;11.946;2023-05-16T21:54:42;6.47;;;2.10;;
31348;SDS011;17976;48.480;11.946;2023-05-16T21:57:08;6.47;;;1.95;;
31348;SDS011;17976;48.480;11.946;2023-05-16T21:59:34;5.45;;;2.00;;
31348;SDS011;17976;48.480;11.946;2023-05-16T22:02:00;4.93;;;1.95;;
31348;SDS011;17976;48.480;11.946;2023-05-16T22:04:26;5.90;;;2.13;;
31348;SDS011;17976;48.480;11.946;2023-05-16T22:06:52;8.20;;;2.33;;
31348;SDS011;17976;48.480;11.946;2023-05-16T22:09:18;4.80;;;2.05;;
31348;SDS011;17976;48.480;11.946;2023-05-16T22:11:44;5.82;;;2.30;;
31348;SDS011;17976;48.480;11.946;2023-05-16T22:14:10;10.93;;;2.55;;
31348;SDS011;17976;48.480;11.946;2023-05-16T22:16:36;8.30;;;2.35;;
31348;SDS011;17976;48.480;11.946;2023-05-16T22:19:02;5.68;;;2.28;;
31348;SDS011;17976;48.480;11.946;2023-05-16T22:21:28;5.97;;;2.33;;
31348;SDS011;17976;48.480;11.946;2023-05-16T22:23:54;11.25;;;1.83;;
31348;SDS011;17976;48.480;11.946;2023-05-16T22:26:20;7.28;;;1.80;;
31348;SDS011;17976;48.480;11.946;2023-05-16T22:28:46;7.28;;;2.50;;
31348;SDS011;17976;48.480;11.946;2023-05-16T22:31:12;11.90;;;2.35;;
31348;SDS011;17976;48.480;11.946;2023-05-16T22:33:38;6.38;;;2.00;;
31348;SDS011;17976;48.480;11.946;2023-05-16T22:36:04;8.48;;;2.17;;
31348;SDS011;17976;48.480;11.946;2023-05-16T22:38:30;7.97;;;2.13;;
31348;SDS011;17976;48.480;11.946;2023-05-16T22:40:56;11.85;;;2.50;;
31348;SDS011;17976;48.480;11.946;2023-05-16T22:43:22;6.45;;;1.85;;
